Time;durP1;ratioP1;P1;durP2;ratioP2;P2;SDS_P1;SDS_P2;PMS_P1;PMS_P2;Temp;Humidity;BMP_temperature;BMP_pressure;BME280_temperature;BME280_humidity;BME280_pressure;Samples;Min_cycle;Max_cycle;Signal;HPM_P1;HPM_P2
2022/06/15 00:00:17;;;;;;;4.90;2.40;;;;;;;-148.88;76.29;75980.34;4993613;28;20138;-73
2022/06/15 00:02:43;;;;;;;7.25;2.42;;;;;;;-148.88;76.81;75984.41;4993536;28;20053;-73
2022/06/15 00:05:08;;;;;;;3.95;2.08;;;;;;;-148.88;76.94;75982.38;4993559;28;20057;-73
2022/06/15 00:07:33;;;;;;;6.88;2.70;;;;;;;-148.88;76.83;75992.53;4993506;28;20027;-74
2022/06/15 00:10:00;;;;;;;5.90;2.50;;;;;;;-148.88;77.26;76010.81;4993463;28;20024;-74
2022/06/15 00:12:25;;;;;;;6.95;2.60;;;;;;;-148.88;78.72;76008.78;4993439;28;20100;-74
2022/06/15 00:14:51;;;;;;;6.63;2.50;;;;;;;-148.88;78.28;76004.72;4993376;28;20054;-74
2022/06/15 00:17:16;;;;;;;7.38;2.97;;;;;;;-148.88;77.50;75996.59;4993500;28;20364;-74
2022/06/15 00:19:41;;;;;;;4.15;2.30;;;;;;;-148.88;77.72;75996.59;4993434;28;20402;-73
2022/06/15 00:22:07;;;;;;;7.40;3.17;;;;;;;-148.88;78.97;75992.53;4993460;28;20053;-73
2022/06/15 00:24:32;;;;;;;7.13;2.72;;;;;;;-148.88;79.03;75996.59;4993396;28;20080;-73
2022/06/15 00:26:57;;;;;;;6.25;2.60;;;;;;;-148.88;79.12;75998.63;4993473;28;20105;-74
2022/06/15 00:29:23;;;;;;;6.68;2.60;;;;;;;-148.88;78.99;75996.59;4993477;28;20081;-73
2022/06/15 00:31:48;;;;;;;5.72;2.65;;;;;;;-148.88;78.76;75996.59;4993272;28;20088;-73
2022/06/15 00:34:13;;;;;;;7.50;3.00;;;;;;;-148.88;79.10;75998.63;4993245;28;20054;-74
2022/06/15 00:36:39;;;;;;;6.57;3.10;;;;;;;-148.88;78.72;75996.59;4993352;28;20088;-74
2022/06/15 00:39:04;;;;;;;5.65;2.83;;;;;;;-148.88;79.04;75992.53;4993352;28;20026;-74
2022/06/15 00:41:33;;;;;;;6.60;2.75;;;;;;;-148.88;79.37;75996.59;4993230;28;20054;-73
2022/06/15 00:44:21;;;;;;;9.27;2.85;;;;;;;-148.88;78.89;75986.44;4993807;28;20026;-74
2022/06/15 00:46:49;;;;;;;5.38;2.55;;;;;;;-148.88;79.08;75990.50;4976297;28;20522;-74
2022/06/15 00:49:35;;;;;;;4.53;2.40;;;;;;;-148.88;79.21;75998.63;4992455;28;20041;-74
2022/06/15 00:52:07;;;;;;;7.50;2.63;;;;;;;-148.88;79.25;76008.78;4993872;28;20034;-73
2022/06/15 00:54:33;;;;;;;8.90;3.07;;;;;;;-148.88;80.12;76041.28;4993901;28;20116;-74
2022/06/15 00:57:01;;;;;;;6.72;3.05;;;;;;;-148.88;80.51;76039.25;4993539;28;20304;-74
2022/06/15 01:00:12;;;;;;;5.57;2.53;;;;;;;-148.88;79.92;76041.28;4976097;28;20542;-74
2022/06/15 01:02:38;;;;;;;5.57;2.47;;;;;;;-148.88;80.38;76041.28;4990378;28;20038;-74
2022/06/15 01:05:25;;;;;;;5.22;2.30;;;;;;;-148.88;81.09;76041.28;4993815;28;20360;-74
2022/06/15 01:08:16;;;;;;;7.07;2.60;;;;;;;-148.88;81.30;76049.41;4993587;28;20117;-73
2022/06/15 01:11:01;;;;;;;6.78;2.63;;;;;;;-148.88;80.96;76039.25;4993713;28;20381;-73
2022/06/15 01:14:24;;;;;;;5.55;2.63;;;;;;;-148.88;81.12;76047.38;4977516;28;20526;-73
2022/06/15 01:17:11;;;;;;;5.40;2.53;;;;;;;-148.88;82.25;76057.53;4918873;29;20080;-73
2022/06/15 01:20:10;;;;;;;7.03;2.85;;;;;;;-148.88;82.22;76061.59;4979664;28;20025;-74
2022/06/15 01:22:45;;;;;;;7.95;3.05;;;;;;;-148.88;82.84;76069.72;4997089;28;20395;-74
2022/06/15 01:25:25;;;;;;;7.10;3.22;;;;;;;-148.88;83.58;76073.78;4997037;28;20022;-74
2022/06/15 01:28:19;;;;;;;9.75;3.10;;;;;;;-148.88;83.82;76102.22;4997252;28;20026;-73
2022/06/15 01:31:01;;;;;;;6.82;2.88;;;;;;;-148.88;84.42;76094.09;4997391;28;20041;-74
2022/06/15 01:33:35;;;;;;;8.10;3.50;;;;;;;-148.88;84.80;76122.56;4997096;28;20096;-74
2022/06/15 01:36:04;;;;;;;6.03;3.20;;;;;;;-148.88;86.67;76146.94;4997099;28;20551;-74
2022/06/15 01:38:46;;;;;;;5.72;3.33;;;;;;;-148.88;87.14;76159.13;4996802;28;20030;-74
2022/06/15 01:41:43;;;;;;;6.78;3.10;;;;;;;-148.88;86.82;76151.00;4996907;28;20026;-74
2022/06/15 01:44:23;;;;;;;8.02;3.33;;;;;;;-148.88;87.23;76167.25;4997548;28;20033;-73
2022/06/15 01:46:48;;;;;;;10.00;3.63;;;;;;;-148.88;88.16;76169.28;4996606;28;20033;-73
2022/06/15 01:49:26;;;;;;;8.40;3.80;;;;;;;-148.88;88.18;76163.19;4996756;28;20022;-74
2022/06/15 01:51:52;;;;;;;7.55;3.30;;;;;;;-148.88;87.23;76163.19;4996729;28;20030;-73
2022/06/15 01:54:32;;;;;;;5.20;3.00;;;;;;;-148.88;86.84;76159.13;4996405;28;20112;-74
2022/06/15 01:57:00;;;;;;;5.43;3.05;;;;;;;-148.88;85.91;76159.13;4979027;28;20102;-74
2022/06/15 02:00:00;;;;;;;8.93;3.28;;;;;;;-148.88;87.20;76165.22;4996353;28;20492;-74
2022/06/15 02:02:53;;;;;;;7.45;3.15;;;;;;;-148.88;87.98;76195.69;4996842;28;20034;-74
2022/06/15 02:05:42;;;;;;;8.63;3.05;;;;;;;-148.88;88.44;76185.53;4996658;28;20018;-73
2022/06/15 02:08:22;;;;;;;7.57;3.30;;;;;;;-148.88;87.55;76179.44;4996343;28;20472;-73
2022/06/15 02:11:06;;;;;;;7.05;3.00;;;;;;;-148.88;87.47;76183.50;4978678;28;20026;-73
2022/06/15 02:13:31;;;;;;;;;;;;;;;-148.88;87.50;76175.38;4996782;28;20522;-74
2022/06/15 02:16:03;;;;;;;7.13;2.93;;;;;;;-148.88;86.66;76171.31;4996144;28;20367;-74
2022/06/15 02:18:32;;;;;;;7.57;3.17;;;;;;;-148.88;87.45;76177.41;4996142;28;20117;-74
2022/06/15 02:21:03;;;;;;;5.30;2.90;;;;;;;-148.88;87.76;76179.44;4996200;28;20038;-74
2022/06/15 02:23:32;;;;;;;7.05;3.00;;;;;;;-148.88;88.82;76203.81;4995966;28;20498;-73
2022/06/15 02:25:59;;;;;;;9.13;3.13;;;;;;;-148.88;90.15;76220.06;4978393;28;20113;-74
2022/06/15 02:28:31;;;;;;;7.20;3.30;;;;;;;-148.88;90.53;76224.13;4995848;28;20018;-73
2022/06/15 02:30:57;;;;;;;6.60;3.20;;;;;;;-148.88;90.75;76224.13;4994385;28;20041;-74
2022/06/15 02:33:31;;;;;;;8.50;3.60;;;;;;;-148.88;90.61;76216.00;4996277;28;20030;-74
2022/06/15 02:35:58;;;;;;;7.68;3.40;;;;;;;-148.88;89.92;76216.00;4994467;28;20116;-73
2022/06/15 02:38:24;;;;;;;7.70;3.35;;;;;;;-148.88;89.52;76216.00;4995660;28;20027;-73
2022/06/15 02:40:50;;;;;;;5.78;3.15;;;;;;;-148.88;88.77;76213.97;4995549;28;20034;-73
2022/06/15 02:43:20;;;;;;;7.47;3.40;;;;;;;-148.88;88.20;76199.75;4994267;28;20018;-74
2022/06/15 02:45:47;;;;;;;6.45;3.08;;;;;;;-148.88;88.12;76207.88;4995720;28;20026;-73
2022/06/15 02:48:14;;;;;;;7.13;3.67;;;;;;;-148.88;88.35;76197.72;4995453;28;20429;-73
2022/06/15 02:50:47;;;;;;;7.45;3.95;;;;;;;-148.88;88.68;76197.72;4995376;28;20031;-73
2022/06/15 02:53:16;;;;;;;10.65;4.00;;;;;;;-148.88;89.46;76207.88;4995731;28;20527;-73
2022/06/15 02:55:43;;;;;;;9.13;3.92;;;;;;;-148.88;90.05;76216.00;4995287;28;20038;-73
2022/06/15 02:58:12;;;;;;;7.97;4.13;;;;;;;-148.88;90.80;76228.19;4995228;28;20030;-73
2022/06/15 03:00:38;;;;;;;7.32;3.75;;;;;;;-148.88;90.71;76222.09;4995557;28;20034;-73
2022/06/15 03:03:05;;;;;;;7.65;3.67;;;;;;;-148.88;90.12;76216.00;4995110;28;20030;-74
2022/06/15 03:05:30;;;;;;;6.75;3.65;;;;;;;-148.88;89.72;76216.00;4995361;28;20022;-73
2022/06/15 03:07:56;;;;;;;7.10;3.70;;;;;;;-148.88;89.94;76216.00;4995085;28;20026;-73
2022/06/15 03:10:22;;;;;;;7.10;3.83;;;;;;;-148.88;89.73;76216.00;4995056;28;20034;-73
2022/06/15 03:12:48;;;;;;;6.13;3.50;;;;;;;-148.88;89.80;76213.97;4993649;28;20097;-73
2022/06/15 03:15:14;;;;;;;8.13;4.65;;;;;;;-148.88;90.88;76213.97;4994936;28;20109;-73
2022/06/15 03:17:39;;;;;;;6.45;3.80;;;;;;;-148.88;91.58;76224.13;4994887;28;20018;-73
2022/06/15 03:20:29;;;;;;;6.22;4.10;;;;;;;-148.88;91.66;76236.31;4994824;28;20038;-73
2022/06/15 03:22:54;;;;;;;8.75;3.97;;;;;;;-148.88;92.77;76242.41;4994946;28;20102;-73
2022/06/15 03:25:20;;;;;;;8.30;4.05;;;;;;;-148.88;92.75;76244.44;4994785;28;20101;-73
2022/06/15 03:27:45;;;;;;;7.28;4.38;;;;;;;-148.88;93.04;76240.38;4994665;28;20058;-73
2022/06/15 03:30:11;;;;;;;9.02;4.13;;;;;;;-148.88;93.24;76248.50;5008740;23;20023;-76
2022/06/15 03:32:37;;;;;;;8.15;4.07;;;;;;;-148.88;93.65;76252.56;5014484;28;20040;-77
2022/06/15 03:35:03;;;;;;;7.05;4.03;;;;;;;-148.88;93.38;76244.44;5013660;28;20022;-77
2022/06/15 03:37:29;;;;;;;12.45;4.78;;;;;;;-148.88;93.51;76248.50;5013945;28;20034;-77
2022/06/15 03:39:55;;;;;;;7.15;4.15;;;;;;;-148.88;93.55;76244.44;5014877;28;20032;-78
2022/06/15 03:42:24;;;;;;;6.93;4.25;;;;;;;-148.88;93.57;76246.47;5013873;28;20479;-77
2022/06/15 03:44:50;;;;;;;7.20;4.38;;;;;;;-148.88;93.58;76238.34;5014623;28;20022;-77
2022/06/15 03:47:18;;;;;;;8.68;4.65;;;;;;;-148.88;93.85;76256.63;5029649;28;20026;-78
2022/06/15 03:49:47;;;;;;;6.68;4.38;;;;;;;-148.88;94.50;76252.56;5014204;28;20399;-78
2022/06/15 03:52:12;;;;;;;9.07;4.82;;;;;;;-148.88;94.55;76244.44;5029257;28;20068;-78
2022/06/15 03:54:38;;;;;;;7.45;4.40;;;;;;;-148.88;94.87;76242.41;5012603;28;20030;-76
2022/06/15 03:57:03;;;;;;;8.02;4.40;;;;;;;-148.88;94.35;76232.25;5013366;28;20411;-77
2022/06/15 03:59:30;;;;;;;12.02;4.15;;;;;;;-148.88;94.48;76232.25;5013102;28;20069;-77
2022/06/15 04:01:56;;;;;;;9.05;4.50;;;;;;;-148.88;94.17;76228.19;5013223;28;20053;-77
2022/06/15 04:04:21;;;;;;;9.95;4.10;;;;;;;-148.88;93.85;76222.09;5013147;28;20021;-77
2022/06/15 04:06:47;;;;;;;9.40;4.55;;;;;;;-148.88;93.66;76224.13;5013279;28;20226;-77
2022/06/15 04:09:13;;;;;;;7.95;4.65;;;;;;;-148.88;93.97;76228.19;5013602;28;20018;-77
2022/06/15 04:14:22;;;;;;;9.68;4.35;;;;;;;-148.88;95.32;76211.94;5013558;28;20081;-77
2022/06/15 04:16:53;;;;;;;8.18;4.57;;;;;;;-148.88;95.13;76211.94;5012113;28;20049;-77
2022/06/15 04:19:20;;;;;;;9.95;4.82;;;;;;;-148.88;95.45;76216.00;5013229;28;20026;-77
2022/06/15 04:21:45;;;;;;;10.68;4.95;;;;;;;-148.88;95.09;76205.84;5013499;28;20026;-78
2022/06/15 04:24:11;;;;;;;8.45;4.97;;;;;;;-148.88;95.12;76197.72;5030769;28;20022;-77
2022/06/15 04:26:38;;;;;;;12.05;5.28;;;;;;;-148.88;95.22;76191.63;5017727;28;20033;-79
2022/06/15 04:29:03;;;;;;;8.18;5.25;;;;;;;-148.88;95.44;76191.63;5016396;28;20018;-79
2022/06/15 04:31:29;;;;;;;9.93;4.95;;;;;;;-148.88;95.10;76191.63;5028771;28;20040;-78
2022/06/15 04:33:54;;;;;;;11.35;4.78;;;;;;;-148.88;95.32;76195.69;5027924;28;20018;-77
2022/06/15 04:36:28;;;;;;;10.13;5.10;;;;;;;-148.88;95.88;76195.69;5012885;28;20030;-77
2022/06/15 04:38:53;;;;;;;9.95;4.90;;;;;;;-148.88;95.96;76195.69;5012920;28;20022;-77
2022/06/15 04:41:19;;;;;;;9.15;5.10;;;;;;;-148.88;95.67;76179.44;5012743;28;20076;-77
2022/06/15 04:43:44;;;;;;;9.55;4.90;;;;;;;-148.88;95.19;76175.38;5012734;28;20053;-77
2022/06/15 04:46:09;;;;;;;9.38;5.03;;;;;;;-148.88;94.93;76171.31;5013068;28;20501;-77
2022/06/15 04:48:35;;;;;;;8.50;5.00;;;;;;;-148.88;95.01;76167.25;5015047;28;20372;-77
2022/06/15 04:51:20;;;;;;;9.93;5.07;;;;;;;-148.88;95.28;76155.06;5016880;28;20422;-77
2022/06/15 04:53:45;;;;;;;10.40;5.30;;;;;;;-148.88;95.21;76159.13;5016814;28;20029;-77
2022/06/15 04:56:12;;;;;;;14.65;5.70;;;;;;;-148.88;95.18;76155.06;5015368;28;20029;-77
2022/06/15 04:58:39;;;;;;;9.38;5.57;;;;;;;-148.88;95.82;76146.94;5015202;28;20021;-78
2022/06/15 05:01:06;;;;;;;11.63;6.28;;;;;;;-148.88;95.52;76138.81;5016432;28;20080;-77
2022/06/15 05:03:31;;;;;;;10.77;6.20;;;;;;;-148.88;95.90;76134.72;5016529;28;20029;-77
2022/06/15 05:05:58;;;;;;;11.48;6.18;;;;;;;-148.88;95.28;76134.72;5016472;28;20450;-78
2022/06/15 05:08:23;;;;;;;13.93;6.32;;;;;;;-148.88;95.26;76126.59;5016527;28;20022;-77
2022/06/15 05:10:49;;;;;;;11.02;5.93;;;;;;;-148.88;95.39;76118.47;5015469;28;20041;-78
2022/06/15 05:13:15;;;;;;;10.45;6.30;;;;;;;-148.88;94.88;76110.34;5015526;28;20022;-77
2022/06/15 05:15:40;;;;;;;13.25;6.45;;;;;;;-148.88;94.67;76102.22;5016719;28;20022;-77
2022/06/15 05:18:07;;;;;;;9.98;5.85;;;;;;;-148.88;94.49;76100.19;5016093;28;20376;-77
2022/06/15 05:20:37;;;;;;;11.32;6.07;;;;;;;-148.88;94.27;76090.03;5016269;28;20030;-77
2022/06/15 05:23:02;;;;;;;14.93;6.78;;;;;;;-148.88;94.60;76077.84;5015957;28;20049;-77
2022/06/15 05:25:28;;;;;;;11.68;6.68;;;;;;;-148.88;94.17;76081.91;5014631;28;20054;-77
2022/06/15 05:27:53;;;;;;;11.05;6.15;;;;;;;-148.88;93.90;76077.84;5031095;28;20022;-78
2022/06/15 05:30:19;;;;;;;13.15;6.10;;;;;;;-148.88;93.53;76069.72;5030890;28;20117;-77
2022/06/15 05:32:44;;;;;;;11.10;6.28;;;;;;;-148.88;93.66;76061.59;5016011;28;20033;-77
2022/06/15 05:35:10;;;;;;;10.00;6.50;;;;;;;-148.88;93.03;76059.56;5015792;28;20040;-77
2022/06/15 05:37:36;;;;;;;9.13;6.30;;;;;;;-148.88;93.38;76057.53;5015616;28;20371;-79
2022/06/15 05:40:01;;;;;;;11.60;6.72;;;;;;;-148.88;92.80;76055.50;5015788;28;20502;-77
2022/06/15 05:42:29;;;;;;;13.82;6.78;;;;;;;-148.88;93.06;76043.31;5015702;28;20069;-77
2022/06/15 05:44:55;;;;;;;9.68;5.80;;;;;;;-148.88;92.67;76035.19;5015524;28;20117;-77
2022/06/15 05:47:21;;;;;;;10.55;6.05;;;;;;;-148.88;92.92;76029.09;5015997;28;20021;-77
2022/06/15 05:49:46;;;;;;;11.20;6.22;;;;;;;-148.88;92.90;76023.00;5015491;28;20032;-77
2022/06/15 05:52:12;;;;;;;9.45;5.97;;;;;;;-148.88;92.40;76016.91;5015537;28;20033;-77
2022/06/15 05:54:37;;;;;;;15.35;6.75;;;;;;;-148.88;92.08;76012.84;5015365;28;20030;-78
2022/06/15 05:57:18;;;;;;;11.68;6.38;;;;;;;-148.88;92.24;76004.72;5015402;28;20104;-77
2022/06/15 05:59:43;;;;;;;11.02;6.47;;;;;;;-148.88;92.29;75988.47;5014814;28;20100;-78
2022/06/15 06:02:14;;;;;;;11.82;6.53;;;;;;;-148.88;91.84;75984.41;5015381;28;20133;-77
2022/06/15 06:04:39;;;;;;;13.23;6.82;;;;;;;-148.88;91.70;75984.41;5015571;28;20046;-77
2022/06/15 06:07:04;;;;;;;10.13;6.38;;;;;;;-148.88;91.84;75972.22;5015201;28;20391;-77
2022/06/15 06:09:31;;;;;;;13.50;6.70;;;;;;;-148.88;92.35;75960.03;5015088;28;20033;-78
2022/06/15 06:11:56;;;;;;;10.60;5.65;;;;;;;-148.88;91.36;75951.91;5013794;28;20058;-77
2022/06/15 06:14:21;;;;;;;11.00;6.30;;;;;;;-148.88;91.07;75947.84;5014888;28;20053;-77
2022/06/15 06:16:47;;;;;;;11.80;6.95;;;;;;;-148.88;90.48;75927.53;5015310;28;20092;-77
2022/06/15 06:19:12;;;;;;;11.10;6.43;;;;;;;-148.88;89.63;75915.34;5014917;28;20033;-78
2022/06/15 06:21:37;;;;;;;11.05;6.00;;;;;;;-148.88;88.68;75909.25;5013820;28;20026;-77
2022/06/15 06:24:03;;;;;;;9.10;5.75;;;;;;;-148.88;88.63;75897.06;5014844;28;20067;-77
2022/06/15 06:26:31;;;;;;;10.82;5.72;;;;;;;-148.88;88.53;75890.97;5015108;28;20030;-78
2022/06/15 06:28:58;;;;;;;8.40;5.40;;;;;;;-148.88;87.96;75870.66;5014729;28;20032;-77
2022/06/15 06:31:24;;;;;;;12.38;6.10;;;;;;;-148.88;88.05;75850.34;5029791;28;20030;-77
2022/06/15 06:33:50;;;;;;;10.40;5.55;;;;;;;-148.88;87.71;75846.28;5014578;28;20053;-77
2022/06/15 06:36:22;;;;;;;11.45;6.03;;;;;;;-148.88;86.97;75834.09;5014902;28;20446;-77
2022/06/15 06:38:47;;;;;;;7.90;5.47;;;;;;;-148.88;85.83;75813.78;5014700;28;20387;-77
2022/06/15 06:41:18;;;;;;;10.40;5.57;;;;;;;-148.88;84.42;75797.53;5014515;28;20018;-77
2022/06/15 06:43:43;;;;;;;11.45;5.60;;;;;;;-148.88;84.78;75775.19;5015200;28;20080;-77
2022/06/15 06:46:09;;;;;;;13.50;5.82;;;;;;;-148.88;83.17;75744.72;5015213;28;20459;-77
2022/06/15 06:48:35;;;;;;;10.30;5.88;;;;;;;-148.88;80.85;75726.44;5014821;28;20018;-77
2022/06/15 06:51:00;;;;;;;11.35;5.47;;;;;;;-148.88;80.90;75732.53;5014841;28;20034;-78
2022/06/15 06:53:25;;;;;;;10.88;5.53;;;;;;;-148.88;82.57;75722.38;5015001;28;20029;-77
2022/06/15 06:55:50;;;;;;;11.52;5.45;;;;;;;-148.88;80.33;75700.03;5014815;28;20479;-77
2022/06/15 06:58:16;;;;;;;8.50;5.32;;;;;;;-148.88;80.11;75691.91;5014648;28;20034;-78
2022/06/15 07:00:41;;;;;;;10.73;5.15;;;;;;;-148.88;80.18;75673.63;5014666;28;20372;-77
2022/06/15 07:03:06;;;;;;;9.35;5.43;;;;;;;-148.88;78.89;75645.19;5014650;28;20030;-77
2022/06/15 07:05:33;;;;;;;8.57;4.75;;;;;;;-148.88;77.85;75651.28;5013400;28;20018;-77
2022/06/15 07:07:59;;;;;;;7.82;4.70;;;;;;;-148.88;77.55;75635.03;5014739;28;20052;-77
2022/06/15 07:10:26;;;;;;;8.18;3.92;;;;;;;-148.88;74.47;75606.59;5013655;28;20025;-77
2022/06/15 07:12:51;;;;;;;6.15;4.10;;;;;;;-148.88;72.84;75594.44;5014459;28;20475;-78
2022/06/15 07:15:16;;;;;;;11.30;4.28;;;;;;;-148.88;73.28;75551.78;5013175;28;20029;-77
2022/06/15 07:17:42;;;;;;;9.30;4.22;;;;;;;-148.88;72.73;75533.50;5014836;28;20030;-78
2022/06/15 07:20:09;;;;;;;6.72;3.83;;;;;;;-148.88;72.62;75541.63;5013037;28;20502;-78
2022/06/15 07:22:36;;;;;;;11.18;4.82;;;;;;;-148.88;72.53;75549.75;5014305;28;20030;-77
2022/06/15 07:25:02;;;;;;;9.93;4.05;;;;;;;-148.88;72.70;75535.53;5014251;28;20097;-77
2022/06/15 07:27:27;;;;;;;6.80;3.70;;;;;;;-148.88;71.80;75517.25;5014787;28;20025;-77
2022/06/15 07:29:55;;;;;;;7.05;3.88;;;;;;;-148.88;71.05;75515.22;5014700;28;20033;-77
2022/06/15 07:32:21;;;;;;;8.02;3.65;;;;;;;-148.88;69.88;75503.03;5013985;28;20403;-77
2022/06/15 07:34:46;;;;;;;8.38;4.18;;;;;;;-148.88;68.13;75472.56;5013987;28;20018;-77
2022/06/15 07:37:12;;;;;;;8.00;3.70;;;;;;;-148.88;66.99;75452.25;5014042;28;20029;-77
2022/06/15 07:39:38;;;;;;;6.68;3.72;;;;;;;-148.88;66.62;75446.16;5029162;28;20041;-77
2022/06/15 07:42:06;;;;;;;6.85;3.85;;;;;;;-148.88;67.43;75444.13;5014477;28;20481;-77
2022/06/15 07:44:34;;;;;;;6.32;3.50;;;;;;;-148.88;65.21;75427.88;5014030;28;20071;-77
2022/06/15 07:49:55;;;;;;;6.63;2.97;;;;;;;-148.88;66.51;75395.38;5013883;28;20083;-77
2022/06/15 07:52:34;;;;;;;8.25;3.97;;;;;;;-148.88;66.01;75403.50;5014047;28;20105;-77
2022/06/15 07:55:00;;;;;;;7.70;3.22;;;;;;;-148.88;66.43;75399.44;5013710;28;20406;-78
2022/06/15 07:57:25;;;;;;;9.13;3.70;;;;;;;-148.88;64.93;75375.06;5028918;28;20022;-78
2022/06/15 07:59:50;;;;;;;6.60;3.00;;;;;;;-148.88;66.76;75366.94;5013777;28;20100;-77
2022/06/15 08:02:16;;;;;;;6.75;3.08;;;;;;;-148.88;63.02;75362.88;5013650;28;20025;-77
2022/06/15 08:04:42;;;;;;;6.68;2.83;;;;;;;-148.88;63.98;75356.78;5012423;28;20479;-77
2022/06/15 08:07:09;;;;;;;6.20;2.92;;;;;;;-148.88;64.82;75350.69;5013630;28;20025;-78
2022/06/15 08:09:35;;;;;;;5.32;3.03;;;;;;;-148.88;64.63;75348.66;5013593;28;20030;-77
2022/06/15 08:12:12;;;;;;;6.82;3.50;;;;;;;-148.88;64.27;75338.50;5013828;28;20386;-77
2022/06/15 08:14:46;;;;;;;6.53;3.53;;;;;;;-148.88;64.58;75330.38;5013824;28;20076;-77
2022/06/15 08:17:17;;;;;;;5.20;3.00;;;;;;;-148.88;63.60;75330.38;5013552;28;20061;-77
2022/06/15 08:19:49;;;;;;;5.97;3.20;;;;;;;-148.88;62.70;75318.19;5013398;28;20034;-77
2022/06/15 08:22:14;;;;;;;6.15;2.90;;;;;;;-148.88;61.98;75314.13;5013757;28;20534;-77
2022/06/15 08:24:41;;;;;;;6.85;3.13;;;;;;;-148.88;60.96;75287.72;5013919;28;20030;-77
2022/06/15 08:27:10;;;;;;;8.02;4.00;;;;;;;-148.88;60.94;75261.34;5012131;28;20022;-77
2022/06/15 08:29:35;;;;;;;6.53;3.45;;;;;;;-148.88;59.15;75234.94;5013343;28;20030;-77
2022/06/15 08:32:01;;;;;;;7.15;3.40;;;;;;;-148.88;59.21;75228.84;5013294;28;20394;-77
2022/06/15 08:34:36;;;;;;;6.45;3.85;;;;;;;-148.88;62.30;75218.69;5013489;28;20026;-77
2022/06/15 08:37:01;;;;;;;10.60;4.60;;;;;;;-148.88;59.91;75206.50;5013537;28;20080;-77
2022/06/15 08:39:27;;;;;;;8.40;4.07;;;;;;;-148.88;62.26;75204.47;5013175;28;20026;-78
2022/06/15 08:42:08;;;;;;;7.88;3.97;;;;;;;-148.88;60.31;75200.41;5011904;28;20104;-77
2022/06/15 08:44:58;;;;;;;9.27;4.07;;;;;;;-148.88;60.94;75176.03;5013408;28;20026;-77
2022/06/15 08:47:29;;;;;;;7.35;3.90;;;;;;;-148.88;60.62;75165.88;5013133;28;20475;-77
2022/06/15 08:50:11;;;;;;;7.25;3.30;;;;;;;-148.88;59.35;75163.84;5013110;28;20033;-78
2022/06/15 08:52:40;;;;;;;8.18;3.42;;;;;;;-148.88;58.22;75153.69;5013332;28;20422;-78
2022/06/15 08:55:26;;;;;;;6.35;3.42;;;;;;;-148.88;56.58;75145.56;5013037;28;20025;-77
2022/06/15 08:58:05;;;;;;;5.55;2.63;;;;;;;-148.88;55.13;75139.47;5013277;28;20052;-78
2022/06/15 09:00:38;;;;;;;6.93;3.38;;;;;;;-148.88;54.85;75123.22;5013604;28;20133;-77
2022/06/15 09:03:27;;;;;;;8.45;3.10;;;;;;;-148.88;56.93;75115.09;5012948;28;20495;-77
2022/06/15 09:06:08;;;;;;;4.90;2.60;;;;;;;-148.88;55.44;75100.88;5028250;28;20029;-78
2022/06/15 09:09:05;;;;;;;6.05;2.85;;;;;;;-148.88;54.84;75096.81;5028109;28;20076;-78
2022/06/15 09:12:49;;;;;;;6.03;2.80;;;;;;;-148.88;55.13;75090.72;4982654;28;20115;-77
2022/06/15 09:14:56;;;;;;;5.25;2.35;;;;;;;-148.88;55.69;75050.13;5012729;28;20026;-78
2022/06/15 09:17:26;;;;;;;6.28;2.45;;;;;;;-148.88;52.65;75042.00;5013237;28;20026;-77
2022/06/15 09:20:10;;;;;;;7.60;3.20;;;;;;;-148.88;52.92;75029.81;5012868;28;20111;-77
2022/06/15 09:22:40;;;;;;;5.15;2.70;;;;;;;-148.88;53.43;75013.56;5013462;28;20080;-77
2022/06/15 09:25:16;;;;;;;4.95;2.25;;;;;;;-148.88;52.71;74995.28;5013113;28;20436;-78
2022/06/15 09:27:48;;;;;;;9.98;3.20;;;;;;;-148.88;49.75;74995.28;5012731;28;20068;-77
2022/06/15 09:35:22;;;;;;;6.40;2.58;;;;;;;-148.88;51.93;74914.06;5012258;28;20113;-76
2022/06/15 09:37:54;;;;;;;7.00;2.67;;;;;;;-148.88;49.70;74903.91;5013616;28;20557;-76
2022/06/15 09:40:22;;;;;;;4.60;2.53;;;;;;;-148.88;52.37;74867.34;4996034;28;20491;-76
2022/06/15 09:42:56;;;;;;;6.22;2.60;;;;;;;-148.88;48.63;74863.28;4995954;28;20081;-76
2022/06/15 09:45:37;;;;;;;6.60;2.58;;;;;;;-148.88;49.28;74822.66;4995975;28;20022;-76
2022/06/15 09:48:30;;;;;;;6.28;2.45;;;;;;;-148.88;50.01;74798.31;4995886;28;20022;-76
2022/06/15 09:51:00;;;;;;;7.25;2.17;;;;;;;-148.88;48.80;74773.94;4996061;28;20086;-76
2022/06/15 09:53:44;;;;;;;5.80;2.95;;;;;;;-148.88;47.35;74767.84;4995839;28;20081;-76
2022/06/15 09:56:15;;;;;;;5.57;2.78;;;;;;;-148.88;48.98;74737.38;4996070;28;20026;-77
2022/06/15 09:58:46;;;;;;;4.40;2.30;;;;;;;-148.88;49.71;74688.66;4994438;28;20038;-76
2022/06/15 10:01:13;;;;;;;4.95;2.60;;;;;;;-148.88;47.23;74708.94;4978297;28;20094;-76
2022/06/15 10:03:43;;;;;;;6.72;2.70;;;;;;;-148.88;47.97;74702.84;4995626;28;20101;-76
2022/06/15 10:06:27;;;;;;;8.95;2.90;;;;;;;-148.88;48.30;74700.84;4978163;28;20096;-76
2022/06/15 10:08:54;;;;;;;5.68;2.53;;;;;;;-148.88;47.73;74694.75;4995560;28;20395;-76
2022/06/15 10:11:46;;;;;;;7.78;2.83;;;;;;;-148.88;45.11;74664.28;4995604;28;20037;-76
2022/06/15 10:14:25;;;;;;;5.57;2.20;;;;;;;-148.88;45.38;74643.97;4977955;28;20018;-76
2022/06/15 10:16:55;;;;;;;6.82;2.30;;;;;;;-148.88;47.30;74607.41;4977879;28;20491;-76
2022/06/15 10:19:23;;;;;;;5.68;2.80;;;;;;;-148.88;46.89;74597.25;4995339;28;20035;-76
2022/06/15 10:22:01;;;;;;;5.50;2.67;;;;;;;-148.88;47.30;74601.31;4995216;28;20022;-76
2022/06/15 10:24:30;;;;;;;5.13;2.53;;;;;;;-148.88;46.19;74540.41;4994084;28;20014;-76
2022/06/15 10:27:23;;;;;;;4.25;2.53;;;;;;;-148.88;44.41;74534.31;4995229;28;20026;-76
2022/06/15 10:29:56;;;;;;;5.90;2.40;;;;;;;-148.88;44.42;74522.13;4995047;28;20029;-76
2022/06/15 10:32:22;;;;;;;7.63;2.30;;;;;;;-148.88;43.69;74477.47;4995118;28;20030;-76
2022/06/15 10:34:47;;;;;;;7.30;1.80;;;;;;;-148.88;40.90;74461.22;4994987;28;20026;-76
2022/06/15 10:37:20;;;;;;;5.03;2.00;;;;;;;-148.88;41.18;74489.66;4995074;28;20036;-76
2022/06/15 10:39:51;;;;;;;5.88;2.50;;;;;;;-148.88;41.91;74518.06;4995124;28;20264;-76
2022/06/15 10:42:21;;;;;;;4.78;2.10;;;;;;;-148.88;43.54;74483.56;4995220;28;20105;-76
2022/06/15 10:44:58;;;;;;;9.68;3.17;;;;;;;-148.88;42.58;74440.91;4995239;28;20029;-76
2022/06/15 10:47:27;;;;;;;6.82;2.70;;;;;;;-148.88;42.63;74491.69;4994922;28;20022;-76
2022/06/15 10:50:01;;;;;;;5.65;2.30;;;;;;;-148.88;42.85;74524.16;4977500;28;20022;-76
2022/06/15 10:52:37;;;;;;;5.35;2.30;;;;;;;-148.88;42.06;74520.09;4977470;28;20037;-76
2022/06/15 11:04:28;;;;;;;6.45;2.10;;;;;;;-148.88;40.79;74304.88;4994936;28;20109;-76
2022/06/15 11:07:15;;;;;;;4.72;2.20;;;;;;;-148.88;39.67;74331.25;4994549;28;20038;-77
2022/06/15 11:10:04;;;;;;;5.72;2.10;;;;;;;-148.88;39.56;74351.56;4977136;28;20117;-76
2022/06/15 11:12:47;;;;;;;5.00;2.08;;;;;;;-148.88;39.00;74284.56;4993159;28;20377;-76
2022/06/15 11:15:12;;;;;;;6.70;1.90;;;;;;;-148.88;37.20;74274.41;4994562;28;20081;-76
2022/06/15 11:18:03;;;;;;;5.07;1.83;;;;;;;-148.88;38.38;74237.88;4994214;28;20030;-76
2022/06/15 11:20:46;;;;;;;5.43;2.33;;;;;;;-148.88;38.12;74347.50;4994212;28;20244;-76
2022/06/15 11:23:30;;;;;;;6.53;2.20;;;;;;;-148.88;39.86;74292.69;4976616;28;20026;-76
2022/06/15 11:29:01;;;;;;;5.47;2.00;;;;;;;-148.88;36.49;74205.38;4994387;28;20034;-76
2022/06/15 11:31:29;;;;;;;5.07;2.13;;;;;;;-148.88;35.92;74294.72;4993902;28;20133;-76
2022/06/15 11:34:09;;;;;;;6.75;2.28;;;;;;;-148.88;36.75;74327.19;4993768;28;20040;-76
2022/06/15 11:36:39;;;;;;;7.15;1.90;;;;;;;-148.88;36.80;74229.75;4993928;28;20052;-76
2022/06/15 11:39:30;;;;;;;5.10;2.25;;;;;;;-148.88;35.74;74290.66;4993980;28;20110;-76
2022/06/15 11:41:57;;;;;;;4.72;2.13;;;;;;;-148.88;36.91;74323.16;4993831;28;20105;-76
2022/06/15 11:44:29;;;;;;;6.00;2.25;;;;;;;-148.88;36.28;74341.41;4993781;28;20041;-76
2022/06/15 11:47:04;;;;;;;6.17;2.13;;;;;;;-148.88;36.05;74422.63;4976377;28;20506;-77
2022/06/15 11:50:08;;;;;;;4.53;2.10;;;;;;;-148.88;36.77;74404.38;4993619;28;20033;-76
2022/06/15 11:52:48;;;;;;;4.35;2.05;;;;;;;-148.88;36.33;74461.22;4992500;28;20115;-76
2022/06/15 11:55:32;;;;;;;5.95;2.00;;;;;;;-148.88;37.33;74392.19;4993794;28;20034;-76
2022/06/15 11:58:09;;;;;;;4.70;2.03;;;;;;;-148.88;38.98;74353.59;4993316;28;20030;-76